Ora, Mississippi
Current Conditions -  °F | °C
As of 7:35 PM on Wednesday 26 Nov 2014 (Local Time) from KPIB Reporting Station
Clear Clear  
Wind Chill: 54°   Ceiling: Unl
Heat Index: 54°   Visibility: 10mi
Dew Point: 36°   Wind: 5mph
Humidity: 51%   Direction: 210°SSW
Pressure: 30.16"   Gusts: NA
Location:  31.6692°N, 89.543°W
Report Text: KPIB 270135Z AUTO 21004KT 10SM CLR 12/02 A3016 RMK AO1
Loading
Personal Weather Stations






























Interactive Weather Map New forecast layout! Learn more

10-Day Weather Forecast

Advertisements
Track Severe Weather on mobile